createdAt,value
2018-01-24T00:02:55.328Z,83.70
2018-01-24T00:07:58.421Z,83.80
2018-01-24T00:18:05.966Z,83.20
2018-01-24T00:23:09.829Z,83.60
2018-01-24T00:28:12.926Z,83.00
2018-01-24T00:33:16.791Z,82.80
2018-01-24T00:38:20.716Z,83.50
2018-01-24T00:43:25.335Z,82.90
2018-01-24T00:48:29.204Z,82.50
2018-01-24T00:53:32.701Z,82.70
2018-01-24T00:58:36.193Z,82.70
2018-01-24T01:03:39.298Z,82.50
2018-01-24T01:08:43.177Z,82.70
2018-01-24T01:13:46.321Z,82.40
2018-01-24T01:18:49.427Z,82.10
2018-01-24T01:23:52.531Z,82.00
2018-01-24T01:28:56.016Z,81.80
2018-01-24T01:39:03.621Z,81.70
2018-01-24T01:44:07.109Z,82.00
2018-01-24T01:49:10.238Z,81.60
2018-01-24T01:54:13.339Z,81.80
2018-01-24T01:59:16.433Z,81.90
2018-01-24T02:04:20.294Z,81.90
2018-01-24T02:09:24.537Z,82.00
2018-01-24T02:14:28.025Z,81.90
2018-01-24T02:19:32.266Z,82.00
2018-01-24T02:24:35.358Z,82.40
2018-01-24T02:29:39.229Z,82.80
2018-01-24T02:39:47.371Z,83.60
2018-01-24T02:44:50.472Z,83.90
2018-01-24T02:49:55.072Z,84.20
2018-01-24T02:54:58.930Z,84.70
2018-01-24T03:10:11.309Z,84.40
2018-01-24T03:15:15.181Z,84.00
2018-01-24T03:20:19.056Z,85.60
2018-01-24T03:25:22.148Z,84.20
2018-01-24T03:30:27.535Z,84.00
2018-01-24T03:35:31.400Z,83.90
2018-01-24T03:45:39.553Z,83.60
2018-01-24T03:50:43.022Z,84.00
2018-01-24T03:55:46.122Z,84.00
2018-01-24T04:00:52.226Z,83.90
2018-01-24T04:05:55.325Z,83.90
2018-01-24T04:16:03.705Z,83.70
2018-01-24T04:21:07.944Z,83.70
2018-01-24T04:26:11.036Z,84.00
2018-01-24T04:31:14.900Z,84.00
2018-01-24T04:36:18.766Z,84.90
2018-01-24T04:41:23.387Z,84.40
2018-01-24T04:46:27.252Z,84.80
2018-01-24T04:51:31.120Z,85.00
2018-01-24T04:56:34.603Z,85.30
2018-01-24T05:01:38.099Z,85.50
2018-01-24T05:06:41.584Z,85.80
2018-01-24T05:11:44.687Z,86.00
2018-01-24T05:16:48.190Z,85.70
2018-01-24T05:21:52.428Z,85.60
2018-01-24T05:26:56.287Z,85.60
2018-01-24T05:32:00.140Z,85.70
2018-01-24T05:37:03.242Z,85.70
2018-01-24T05:42:07.486Z,85.60
2018-01-24T05:47:11.336Z,85.60
2018-01-24T05:52:14.832Z,85.40
2018-01-24T05:57:17.948Z,85.50
2018-01-24T06:02:21.051Z,86.00
2018-01-24T06:07:24.198Z,85.60
2018-01-24T06:12:27.697Z,85.30
2018-01-24T06:17:31.551Z,85.30
2018-01-24T06:22:35.416Z,85.20
2018-01-24T06:27:38.487Z,85.60
2018-01-24T06:32:41.594Z,85.40
2018-01-24T06:42:50.276Z,85.70
2018-01-24T06:47:53.375Z,86.20
2018-01-24T06:52:56.484Z,86.40
2018-01-24T06:57:59.575Z,86.10
2018-01-24T07:03:03.080Z,85.90
2018-01-24T07:08:07.688Z,85.90
2018-01-24T07:13:28.772Z,86.00
2018-01-24T07:18:32.999Z,86.00
2018-01-24T07:23:36.543Z,86.00
2018-01-24T07:28:39.696Z,85.60
2018-01-24T07:33:42.784Z,85.60
2018-01-24T07:38:45.885Z,85.20
2018-01-24T07:43:50.124Z,85.30
2018-01-24T07:48:53.239Z,85.10
2018-01-24T07:53:56.332Z,85.00
2018-01-24T07:58:59.719Z,84.80
2018-01-24T08:04:03.214Z,84.20
2018-01-24T08:09:06.353Z,83.80
2018-01-24T08:14:10.216Z,83.80
2018-01-24T08:19:13.300Z,83.10
2018-01-24T08:24:16.436Z,82.70
2018-01-24T08:29:20.276Z,82.30
2018-01-24T08:34:24.129Z,83.00
2018-01-24T08:39:27.239Z,82.10
2018-01-24T08:49:34.800Z,81.30
2018-01-24T08:54:38.318Z,80.70
2018-01-24T09:00:05.794Z,80.00
2018-01-24T09:10:55.322Z,78.60
2018-01-24T09:21:45.296Z,78.00
2018-01-24T09:26:49.155Z,77.70
2018-01-24T09:31:53.368Z,78.30
2018-01-24T09:36:57.252Z,78.40
2018-01-24T09:42:00.376Z,77.70
2018-01-24T09:47:03.472Z,77.30
2018-01-24T09:52:06.559Z,76.10
2018-01-24T09:57:11.159Z,75.90
2018-01-24T10:02:15.968Z,74.70
2018-01-24T10:07:20.458Z,74.90
2018-01-24T10:12:24.319Z,75.20
2018-01-24T10:17:28.176Z,75.20
2018-01-24T10:22:31.290Z,74.90
2018-01-24T10:27:35.176Z,74.90
2018-01-24T10:32:38.656Z,74.80
2018-01-24T10:37:42.498Z,74.50
2018-01-24T10:42:46.723Z,74.60
2018-01-24T10:47:50.962Z,74.60
2018-01-24T10:52:54.812Z,75.70
2018-01-24T10:57:59.452Z,74.80
2018-01-24T11:03:03.328Z,74.80
2018-01-24T11:08:06.431Z,74.80
2018-01-24T11:13:09.558Z,75.20
2018-01-24T11:18:12.771Z,75.50
2018-01-24T11:23:16.749Z,76.00
2018-01-24T11:28:20.636Z,75.00
2018-01-24T11:33:23.696Z,75.10
2018-01-24T11:38:27.008Z,74.90
2018-01-24T11:43:30.530Z,75.20
2018-01-24T11:48:33.744Z,75.30
2018-01-24T11:53:38.372Z,74.50
2018-01-24T11:58:42.590Z,74.60
2018-01-24T12:03:45.754Z,74.60
2018-01-24T12:08:49.627Z,74.30
2018-01-24T12:13:53.867Z,74.10
2018-01-24T12:18:56.978Z,73.40
2018-01-24T12:24:00.116Z,74.10
2018-01-24T12:29:03.233Z,74.60
2018-01-24T12:34:06.703Z,74.40
2018-01-24T12:39:10.587Z,73.80
2018-01-24T12:44:14.441Z,74.60
2018-01-24T12:49:19.092Z,73.20
2018-01-24T12:54:22.943Z,72.80
2018-01-24T12:59:26.981Z,72.20
2018-01-24T13:04:30.821Z,72.80
2018-01-24T13:09:33.903Z,72.10
2018-01-24T13:14:36.990Z,72.10
2018-01-24T13:19:40.851Z,71.80
2018-01-24T13:24:43.953Z,72.10
2018-01-24T13:29:47.047Z,72.30
2018-01-24T13:34:51.298Z,71.40
2018-01-24T13:44:59.478Z,71.30
2018-01-24T13:50:03.714Z,71.40
2018-01-24T13:55:07.583Z,72.10
2018-01-24T14:00:11.075Z,71.20
2018-01-24T14:05:14.683Z,71.20
2018-01-24T14:15:22.898Z,71.20
2018-01-24T14:20:27.436Z,71.60
2018-01-24T14:25:31.358Z,71.70
2018-01-24T14:30:34.818Z,71.70
2018-01-24T14:40:42.483Z,71.80
2018-01-24T14:50:50.368Z,72.50
2018-01-24T14:55:53.476Z,72.10
2018-01-24T15:00:56.961Z,72.00
2018-01-24T15:06:01.572Z,72.30
2018-01-24T15:11:04.691Z,72.60
2018-01-24T15:16:07.780Z,72.90
2018-01-24T15:21:12.015Z,72.20
2018-01-24T15:26:15.508Z,72.10
2018-01-24T15:31:19.364Z,72.00
2018-01-24T15:46:32.465Z,71.60
2018-01-24T15:51:36.329Z,71.90
2018-01-24T16:01:44.623Z,72.00
2018-01-24T16:06:47.712Z,72.00
2018-01-24T16:11:51.572Z,72.00
2018-01-24T16:16:55.811Z,72.10
2018-01-24T16:22:00.415Z,72.40
2018-01-24T16:27:03.883Z,72.50
2018-01-24T16:32:07.735Z,72.30
2018-01-24T16:37:11.591Z,72.30
2018-01-24T16:42:15.814Z,73.50
2018-01-24T16:47:19.672Z,72.60
2018-01-24T16:52:22.759Z,73.00
2018-01-24T16:57:26.617Z,74.70
2018-01-24T17:07:34.906Z,72.20
2018-01-24T17:12:39.527Z,71.20
2018-01-24T17:17:43.040Z,70.70
2018-01-24T17:22:46.134Z,70.50
2018-01-24T17:27:49.734Z,70.10
2018-01-24T17:32:53.966Z,69.20
2018-01-24T17:37:57.827Z,68.80
2018-01-24T17:43:01.686Z,67.60
2018-01-24T17:53:10.732Z,66.40
2018-01-24T17:58:13.828Z,66.20
2018-01-24T18:03:18.056Z,66.10
2018-01-24T18:08:21.916Z,66.30
2018-01-24T18:13:25.395Z,66.20
2018-01-24T18:23:33.007Z,66.30
2018-01-24T18:28:36.044Z,65.60
2018-01-24T18:43:48.028Z,65.40
2018-01-24T18:48:52.252Z,65.30
2018-01-24T18:53:55.344Z,65.40
2018-01-24T19:09:07.362Z,65.80
2018-01-24T19:34:29.021Z,67.20
2018-01-24T19:39:32.128Z,67.70
2018-01-24T19:44:35.619Z,67.80
2018-01-24T19:54:44.291Z,67.90
2018-01-24T19:59:48.529Z,68.10
2018-01-24T20:09:56.461Z,68.30
2018-01-24T20:15:00.379Z,68.50
2018-01-24T20:25:07.890Z,68.50
2018-01-24T20:30:12.497Z,68.40
2018-01-24T20:35:16.432Z,69.10
2018-01-24T20:40:19.567Z,68.40
2018-01-24T20:45:24.619Z,68.30
2018-01-24T20:50:27.713Z,69.10
2018-01-24T20:55:30.808Z,69.50
2018-01-24T21:05:38.753Z,70.20
2018-01-24T21:10:42.616Z,71.40
2018-01-24T21:15:45.711Z,70.80
2018-01-24T21:20:48.811Z,70.80
2018-01-24T21:25:51.904Z,70.70
2018-01-24T21:31:13.441Z,70.90
2018-01-24T21:36:34.060Z,70.80
2018-01-24T21:41:38.309Z,70.80
2018-01-24T22:01:55.151Z,70.80
2018-01-24T22:17:07.900Z,70.70
2018-01-24T22:22:12.507Z,71.60
2018-01-24T22:27:15.611Z,71.10
2018-01-24T22:32:19.097Z,71.00
2018-01-24T22:37:22.951Z,71.20
2018-01-24T22:47:30.509Z,71.40
2018-01-24T22:57:38.168Z,71.50
2018-01-24T23:02:41.284Z,71.20
2018-01-24T23:07:45.381Z,71.00
2018-01-24T23:17:53.825Z,71.00
2018-01-24T23:28:02.548Z,70.70
2018-01-24T23:33:05.671Z,70.70
2018-01-24T23:38:09.160Z,70.60
2018-01-24T23:43:13.452Z,70.40
2018-01-24T23:53:21.395Z,71.20
2018-01-24T23:58:25.255Z,71.00
